sensor_id;sensor_type;location;lat;lon;timestamp;pressure;altitude;pressure_sealevel;temperature;humidity
79534;BME280;68982;52.160;6.736;2023-04-25T00:01:13;100727.22;;;6.05;89.28
79534;BME280;68982;52.160;6.736;2023-04-25T00:03:38;100725.16;;;5.99;89.83
79534;BME280;68982;52.160;6.736;2023-04-25T00:06:05;100722.66;;;5.97;89.75
79534;BME280;68982;52.160;6.736;2023-04-25T00:08:31;100711.72;;;5.91;90.03
79534;BME280;68982;52.160;6.736;2023-04-25T00:10:57;100711.72;;;5.91;89.92
79534;BME280;68982;52.160;6.736;2023-04-25T00:13:23;100723.25;;;5.91;89.47
79534;BME280;68982;52.160;6.736;2023-04-25T00:15:50;100727.16;;;5.97;89.27
79534;BME280;68982;52.160;6.736;2023-04-25T00:18:16;100735.53;;;6.02;89.50
79534;BME280;68982;52.160;6.736;2023-04-25T00:20:43;100730.84;;;5.96;88.79
79534;BME280;68982;52.160;6.736;2023-04-25T00:23:14;100734.13;;;5.90;89.17
79534;BME280;68982;52.160;6.736;2023-04-25T00:25:46;100741.13;;;5.82;89.00
79534;BME280;68982;52.160;6.736;2023-04-25T00:28:12;100742.13;;;5.81;89.21
79534;BME280;68982;52.160;6.736;2023-04-25T00:30:38;100741.47;;;5.88;89.40
79534;BME280;68982;52.160;6.736;2023-04-25T00:33:03;100751.44;;;5.77;89.68
79534;BME280;68982;52.160;6.736;2023-04-25T00:35:29;100746.94;;;5.78;89.37
79534;BME280;68982;52.160;6.736;2023-04-25T00:37:54;100747.78;;;5.78;88.86
79534;BME280;68982;52.160;6.736;2023-04-25T00:40:20;100747.13;;;5.76;88.60
79534;BME280;68982;52.160;6.736;2023-04-25T00:42:46;100753.66;;;5.82;89.36
79534;BME280;68982;52.160;6.736;2023-04-25T00:45:13;100753.84;;;5.80;89.04
79534;BME280;68982;52.160;6.736;2023-04-25T00:47:40;100748.81;;;5.86;89.23
79534;BME280;68982;52.160;6.736;2023-04-25T00:50:06;100755.69;;;5.88;88.88
79534;BME280;68982;52.160;6.736;2023-04-25T00:52:32;100757.50;;;5.79;88.02
79534;BME280;68982;52.160;6.736;2023-04-25T00:54:58;100763.47;;;5.73;88.72
79534;BME280;68982;52.160;6.736;2023-04-25T00:57:23;100756.31;;;5.74;88.66
79534;BME280;68982;52.160;6.736;2023-04-25T00:59:50;100754.47;;;5.74;88.62
79534;BME280;68982;52.160;6.736;2023-04-25T01:02:16;100745.75;;;5.72;87.96
79534;BME280;68982;52.160;6.736;2023-04-25T01:04:42;100758.13;;;5.73;88.68
79534;BME280;68982;52.160;6.736;2023-04-25T01:07:07;100746.72;;;5.63;88.29
79534;BME280;68982;52.160;6.736;2023-04-25T01:09:33;100760.75;;;5.65;88.13
79534;BME280;68982;52.160;6.736;2023-04-25T01:11:58;100761.06;;;5.62;88.84
79534;BME280;68982;52.160;6.736;2023-04-25T01:14:25;100772.84;;;5.69;88.12
79534;BME280;68982;52.160;6.736;2023-04-25T01:16:50;100771.81;;;5.70;88.75
79534;BME280;68982;52.160;6.736;2023-04-25T01:19:16;100766.63;;;5.69;87.93
79534;BME280;68982;52.160;6.736;2023-04-25T01:21:43;100769.28;;;5.60;88.27
79534;BME280;68982;52.160;6.736;2023-04-25T01:24:09;100774.78;;;5.59;88.30
79534;BME280;68982;52.160;6.736;2023-04-25T01:26:35;100762.16;;;5.51;88.01
79534;BME280;68982;52.160;6.736;2023-04-25T01:29:01;100762.97;;;5.44;88.31
79534;BME280;68982;52.160;6.736;2023-04-25T01:31:27;100750.59;;;5.43;87.92
79534;BME280;68982;52.160;6.736;2023-04-25T01:33:52;100751.25;;;5.45;88.32
79534;BME280;68982;52.160;6.736;2023-04-25T01:36:18;100765.53;;;5.53;88.16
79534;BME280;68982;52.160;6.736;2023-04-25T01:38:44;100767.16;;;5.46;88.25
79534;BME280;68982;52.160;6.736;2023-04-25T01:41:11;100766.00;;;5.49;87.59
79534;BME280;68982;52.160;6.736;2023-04-25T01:43:37;100771.19;;;5.50;87.90
79534;BME280;68982;52.160;6.736;2023-04-25T01:46:02;100764.34;;;5.48;87.52
79534;BME280;68982;52.160;6.736;2023-04-25T01:48:27;100768.19;;;5.53;87.26
79534;BME280;68982;52.160;6.736;2023-04-25T01:50:53;100767.31;;;5.45;87.92
79534;BME280;68982;52.160;6.736;2023-04-25T01:53:18;100774.34;;;5.46;87.96
79534;BME280;68982;52.160;6.736;2023-04-25T01:55:43;100783.19;;;5.46;87.50
79534;BME280;68982;52.160;6.736;2023-04-25T01:58:09;100784.13;;;5.37;87.29
79534;BME280;68982;52.160;6.736;2023-04-25T02:00:35;100793.91;;;5.46;87.89
79534;BME280;68982;52.160;6.736;2023-04-25T02:03:04;100784.03;;;5.47;86.36
79534;BME280;68982;52.160;6.736;2023-04-25T02:05:37;100790.72;;;5.43;87.63
79534;BME280;68982;52.160;6.736;2023-04-25T02:08:05;100796.69;;;5.36;87.22
79534;BME280;68982;52.160;6.736;2023-04-25T02:10:30;100789.16;;;5.40;86.63
79534;BME280;68982;52.160;6.736;2023-04-25T02:12:57;100788.59;;;5.28;87.35
79534;BME280;68982;52.160;6.736;2023-04-25T02:15:22;100792.88;;;5.21;86.79
79534;BME280;68982;52.160;6.736;2023-04-25T02:17:47;100796.47;;;5.30;87.67
79534;BME280;68982;52.160;6.736;2023-04-25T02:20:13;100804.78;;;5.27;86.63
79534;BME280;68982;52.160;6.736;2023-04-25T02:22:41;100799.75;;;5.24;87.21
79534;BME280;68982;52.160;6.736;2023-04-25T02:25:07;100812.66;;;5.28;86.67
79534;BME280;68982;52.160;6.736;2023-04-25T02:27:33;100811.50;;;5.31;86.92
79534;BME280;68982;52.160;6.736;2023-04-25T02:29:58;100804.63;;;5.28;86.97
79534;BME280;68982;52.160;6.736;2023-04-25T02:32:23;100815.31;;;5.28;86.74
79534;BME280;68982;52.160;6.736;2023-04-25T02:34:49;100814.63;;;5.26;87.42
79534;BME280;68982;52.160;6.736;2023-04-25T02:37:14;100823.66;;;5.25;86.56
79534;BME280;68982;52.160;6.736;2023-04-25T02:39:40;100825.66;;;5.23;86.43
79534;BME280;68982;52.160;6.736;2023-04-25T02:42:05;100825.31;;;5.26;85.95
79534;BME280;68982;52.160;6.736;2023-04-25T02:44:30;100826.63;;;5.22;86.27
79534;BME280;68982;52.160;6.736;2023-04-25T02:46:56;100825.09;;;5.19;86.24
79534;BME280;68982;52.160;6.736;2023-04-25T02:49:21;100832.28;;;5.19;85.96
79534;BME280;68982;52.160;6.736;2023-04-25T02:51:46;100836.47;;;5.22;86.31
79534;BME280;68982;52.160;6.736;2023-04-25T02:54:12;100834.19;;;5.09;86.68
79534;BME280;68982;52.160;6.736;2023-04-25T02:56:37;100835.66;;;5.21;85.53
79534;BME280;68982;52.160;6.736;2023-04-25T02:59:02;100834.59;;;5.14;85.65
79534;BME280;68982;52.160;6.736;2023-04-25T03:01:28;100835.56;;;5.13;86.08
79534;BME280;68982;52.160;6.736;2023-04-25T03:03:53;100841.75;;;5.13;85.84
79534;BME280;68982;52.160;6.736;2023-04-25T03:06:18;100840.63;;;5.16;85.88
79534;BME280;68982;52.160;6.736;2023-04-25T03:08:43;100833.44;;;5.16;85.06
79534;BME280;68982;52.160;6.736;2023-04-25T03:11:09;100839.94;;;5.14;85.92
79534;BME280;68982;52.160;6.736;2023-04-25T03:13:35;100830.44;;;5.02;85.23
79534;BME280;68982;52.160;6.736;2023-04-25T03:16:00;100842.91;;;5.11;85.79
79534;BME280;68982;52.160;6.736;2023-04-25T03:18:26;100839.72;;;5.07;85.59
79534;BME280;68982;52.160;6.736;2023-04-25T03:20:51;100849.25;;;5.10;86.02
79534;BME280;68982;52.160;6.736;2023-04-25T03:23:16;100844.19;;;5.07;85.36
79534;BME280;68982;52.160;6.736;2023-04-25T03:25:42;100847.56;;;5.09;84.80
79534;BME280;68982;52.160;6.736;2023-04-25T03:28:07;100841.97;;;5.02;84.81
79534;BME280;68982;52.160;6.736;2023-04-25T03:30:32;100851.47;;;4.96;84.45
79534;BME280;68982;52.160;6.736;2023-04-25T03:32:58;100852.59;;;4.94;84.22
79534;BME280;68982;52.160;6.736;2023-04-25T03:35:23;100855.97;;;4.96;84.53
79534;BME280;68982;52.160;6.736;2023-04-25T03:37:49;100852.38;;;4.87;84.76
79534;BME280;68982;52.160;6.736;2023-04-25T03:40:14;100849.47;;;4.81;85.50
79534;BME280;68982;52.160;6.736;2023-04-25T03:42:39;100848.69;;;4.88;84.73
79534;BME280;68982;52.160;6.736;2023-04-25T03:45:05;100851.25;;;4.80;84.73
79534;BME280;68982;52.160;6.736;2023-04-25T03:47:31;100855.63;;;4.81;84.82
79534;BME280;68982;52.160;6.736;2023-04-25T03:49:56;100859.13;;;4.82;84.05
79534;BME280;68982;52.160;6.736;2023-04-25T03:52:21;100862.41;;;4.75;84.84
79534;BME280;68982;52.160;6.736;2023-04-25T03:54:47;100862.56;;;4.74;85.69
79534;BME280;68982;52.160;6.736;2023-04-25T03:57:12;100865.97;;;4.66;85.46
79534;BME280;68982;52.160;6.736;2023-04-25T03:59:37;100865.25;;;4.74;84.95
79534;BME280;68982;52.160;6.736;2023-04-25T04:02:03;100867.28;;;4.80;84.90
79534;BME280;68982;52.160;6.736;2023-04-25T04:04:28;100860.34;;;4.69;85.09
79534;BME280;68982;52.160;6.736;2023-04-25T04:06:53;100869.06;;;4.71;85.42
79534;BME280;68982;52.160;6.736;2023-04-25T04:09:19;100866.16;;;4.65;85.95
79534;BME280;68982;52.160;6.736;2023-04-25T04:11:45;100871.31;;;4.66;86.25
79534;BME280;68982;52.160;6.736;2023-04-25T04:14:10;100862.38;;;4.57;86.08
79534;BME280;68982;52.160;6.736;2023-04-25T04:16:36;100859.88;;;4.56;86.89
79534;BME280;68982;52.160;6.736;2023-04-25T04:19:02;100878.13;;;4.61;86.59
79534;BME280;68982;52.160;6.736;2023-04-25T04:21:27;100877.41;;;4.59;86.99
79534;BME280;68982;52.160;6.736;2023-04-25T04:23:53;100879.50;;;4.65;86.45
79534;BME280;68982;52.160;6.736;2023-04-25T04:26:20;100879.09;;;4.60;86.74
79534;BME280;68982;52.160;6.736;2023-04-25T04:28:50;100875.72;;;4.57;86.90
79534;BME280;68982;52.160;6.736;2023-04-25T04:31:22;100879.78;;;4.62;87.18
79534;BME280;68982;52.160;6.736;2023-04-25T04:33:49;100883.47;;;4.61;86.88
79534;BME280;68982;52.160;6.736;2023-04-25T04:36:14;100885.97;;;4.62;87.10
79534;BME280;68982;52.160;6.736;2023-04-25T04:38:41;100890.59;;;4.60;86.64
79534;BME280;68982;52.160;6.736;2023-04-25T04:41:07;100892.09;;;4.72;86.06
79534;BME280;68982;52.160;6.736;2023-04-25T04:43:33;100892.44;;;4.60;86.56
79534;BME280;68982;52.160;6.736;2023-04-25T04:46:00;100911.25;;;4.68;86.67
79534;BME280;68982;52.160;6.736;2023-04-25T04:48:26;100897.19;;;4.66;85.93
79534;BME280;68982;52.160;6.736;2023-04-25T04:50:51;100909.56;;;4.67;85.87
79534;BME280;68982;52.160;6.736;2023-04-25T04:53:17;100900.81;;;4.74;85.62
79534;BME280;68982;52.160;6.736;2023-04-25T04:55:42;100916.72;;;4.66;85.81
79534;BME280;68982;52.160;6.736;2023-04-25T04:58:08;100925.44;;;4.68;85.65
79534;BME280;68982;52.160;6.736;2023-04-25T05:00:33;100913.78;;;4.69;85.43
79534;BME280;68982;52.160;6.736;2023-04-25T05:02:59;100916.44;;;4.69;85.00
79534;BME280;68982;52.160;6.736;2023-04-25T05:05:24;100919.97;;;4.70;85.50
79534;BME280;68982;52.160;6.736;2023-04-25T05:07:50;100918.50;;;4.75;85.14
79534;BME280;68982;52.160;6.736;2023-04-25T05:10:19;100925.00;;;4.73;85.03
79534;BME280;68982;52.160;6.736;2023-04-25T05:12:45;100929.75;;;4.79;85.09
79534;BME280;68982;52.160;6.736;2023-04-25T05:15:11;100936.75;;;4.80;84.84
79534;BME280;68982;52.160;6.736;2023-04-25T05:17:36;100933.81;;;4.83;85.18
79534;BME280;68982;52.160;6.736;2023-04-25T05:20:01;100945.78;;;4.79;85.11
79534;BME280;68982;52.160;6.736;2023-04-25T05:22:27;100934.28;;;4.69;85.44
79534;BME280;68982;52.160;6.736;2023-04-25T05:24:53;100945.22;;;4.75;86.05
79534;BME280;68982;52.160;6.736;2023-04-25T05:27:18;100945.78;;;4.79;86.04
79534;BME280;68982;52.160;6.736;2023-04-25T05:29:44;100959.38;;;4.86;85.78
79534;BME280;68982;52.160;6.736;2023-04-25T05:32:10;100959.88;;;4.71;85.85
79534;BME280;68982;52.160;6.736;2023-04-25T05:34:36;100951.94;;;4.80;86.16
79534;BME280;68982;52.160;6.736;2023-04-25T05:37:02;100957.03;;;4.83;85.29
79534;BME280;68982;52.160;6.736;2023-04-25T05:39:27;100969.00;;;4.78;85.91
79534;BME280;68982;52.160;6.736;2023-04-25T05:41:53;100973.31;;;4.89;85.57
79534;BME280;68982;52.160;6.736;2023-04-25T05:44:18;100972.59;;;4.87;85.52
79534;BME280;68982;52.160;6.736;2023-04-25T05:46:44;100974.59;;;4.85;85.92
79534;BME280;68982;52.160;6.736;2023-04-25T05:49:09;100978.47;;;4.91;85.56
79534;BME280;68982;52.160;6.736;2023-04-25T05:51:34;100982.09;;;4.99;85.40
79534;BME280;68982;52.160;6.736;2023-04-25T05:54:00;100986.47;;;5.01;84.60
79534;BME280;68982;52.160;6.736;2023-04-25T05:56:25;100986.16;;;5.04;85.22
79534;BME280;68982;52.160;6.736;2023-04-25T05:58:50;100982.50;;;5.05;84.92
79534;BME280;68982;52.160;6.736;2023-04-25T06:01:16;100994.88;;;5.06;85.14
79534;BME280;68982;52.160;6.736;2023-04-25T06:03:41;100996.72;;;5.05;84.27
79534;BME280;68982;52.160;6.736;2023-04-25T06:06:08;100996.53;;;5.07;84.51
79534;BME280;68982;52.160;6.736;2023-04-25T06:08:34;100999.38;;;5.05;83.48
79534;BME280;68982;52.160;6.736;2023-04-25T06:10:59;100998.47;;;5.14;83.85
79534;BME280;68982;52.160;6.736;2023-04-25T06:13:26;100993.69;;;5.18;82.51
79534;BME280;68982;52.160;6.736;2023-04-25T06:15:51;101002.22;;;5.22;82.81
79534;BME280;68982;52.160;6.736;2023-04-25T06:18:17;100990.41;;;5.24;83.29
79534;BME280;68982;52.160;6.736;2023-04-25T06:20:42;101002.47;;;5.28;82.73
79534;BME280;68982;52.160;6.736;2023-04-25T06:23:07;101008.66;;;5.29;82.49
79534;BME280;68982;52.160;6.736;2023-04-25T06:25:33;101016.69;;;5.29;82.45
79534;BME280;68982;52.160;6.736;2023-04-25T06:27:58;101021.69;;;5.42;82.81
79534;BME280;68982;52.160;6.736;2023-04-25T06:30:23;101015.41;;;5.51;82.88
79534;BME280;68982;52.160;6.736;2023-04-25T06:32:53;101020.38;;;5.46;81.75
79534;BME280;68982;52.160;6.736;2023-04-25T06:35:19;101023.06;;;5.46;81.21
79534;BME280;68982;52.160;6.736;2023-04-25T06:37:44;101022.75;;;5.49;81.77
79534;BME280;68982;52.160;6.736;2023-04-25T06:40:10;101018.69;;;5.45;82.45
79534;BME280;68982;52.160;6.736;2023-04-25T06:42:36;101020.50;;;5.54;82.34
79534;BME280;68982;52.160;6.736;2023-04-25T06:45:01;101024.94;;;5.63;82.39
79534;BME280;68982;52.160;6.736;2023-04-25T06:47:27;101028.06;;;5.58;80.83
79534;BME280;68982;52.160;6.736;2023-04-25T06:49:52;101027.19;;;5.58;82.62
79534;BME280;68982;52.160;6.736;2023-04-25T06:52:17;101036.47;;;5.64;81.78
79534;BME280;68982;52.160;6.736;2023-04-25T06:54:43;101043.94;;;5.60;81.44
79534;BME280;68982;52.160;6.736;2023-04-25T06:57:09;101042.97;;;5.61;81.28
79534;BME280;68982;52.160;6.736;2023-04-25T06:59:34;101033.66;;;5.65;80.65
79534;BME280;68982;52.160;6.736;2023-04-25T07:01:59;101048.00;;;5.64;80.44
79534;BME280;68982;52.160;6.736;2023-04-25T07:04:25;101053.66;;;5.61;80.22
79534;BME280;68982;52.160;6.736;2023-04-25T07:06:50;101049.25;;;5.70;80.15
79534;BME280;68982;52.160;6.736;2023-04-25T07:09:16;101049.13;;;6.07;78.63
79534;BME280;68982;52.160;6.736;2023-04-25T07:11:41;101046.22;;;6.18;77.20
79534;BME280;68982;52.160;6.736;2023-04-25T07:14:07;101060.38;;;6.55;76.80
79534;BME280;68982;52.160;6.736;2023-04-25T07:16:32;101059.00;;;6.77;77.48
79534;BME280;68982;52.160;6.736;2023-04-25T07:18:57;101055.91;;;6.90;75.31
79534;BME280;68982;52.160;6.736;2023-04-25T07:21:24;101058.81;;;7.04;75.26
79534;BME280;68982;52.160;6.736;2023-04-25T07:23:50;101054.81;;;7.09;74.45
79534;BME280;68982;52.160;6.736;2023-04-25T07:26:16;101049.84;;;7.14;74.23
79534;BME280;68982;52.160;6.736;2023-04-25T07:28:41;101060.94;;;6.67;74.61
79534;BME280;68982;52.160;6.736;2023-04-25T07:31:07;101056.53;;;6.57;74.29
79534;BME280;68982;52.160;6.736;2023-04-25T07:33:33;101058.94;;;6.69;75.47
79534;BME280;68982;52.160;6.736;2023-04-25T07:35:58;101061.16;;;6.73;73.19
79534;BME280;68982;52.160;6.736;2023-04-25T07:38:23;101059.75;;;6.87;72.51
79534;BME280;68982;52.160;6.736;2023-04-25T07:40:49;101062.97;;;7.25;71.36
79534;BME280;68982;52.160;6.736;2023-04-25T07:43:15;101064.56;;;7.52;69.67
79534;BME280;68982;52.160;6.736;2023-04-25T07:45:45;101054.88;;;7.76;67.71
79534;BME280;68982;52.160;6.736;2023-04-25T07:48:11;101053.25;;;7.99;65.03
79534;BME280;68982;52.160;6.736;2023-04-25T07:50:36;101064.81;;;8.00;65.47
79534;BME280;68982;52.160;6.736;2023-04-25T07:53:01;101067.34;;;7.85;64.81
79534;BME280;68982;52.160;6.736;2023-04-25T07:55:27;101067.16;;;7.78;67.10
79534;BME280;68982;52.160;6.736;2023-04-25T07:57:53;101067.03;;;7.96;66.79
79534;BME280;68982;52.160;6.736;2023-04-25T08:00:19;101077.22;;;7.76;63.64
79534;BME280;68982;52.160;6.736;2023-04-25T08:02:44;101085.69;;;7.47;64.20
79534;BME280;68982;52.160;6.736;2023-04-25T08:05:09;101085.16;;;7.43;65.32
79534;BME280;68982;52.160;6.736;2023-04-25T08:07:39;101092.47;;;7.33;64.76
79534;BME280;68982;52.160;6.736;2023-04-25T08:10:06;101100.22;;;7.36;64.93
79534;BME280;68982;52.160;6.736;2023-04-25T08:12:32;101096.44;;;7.55;65.89
79534;BME280;68982;52.160;6.736;2023-04-25T08:14:57;101104.66;;;7.62;63.87
79534;BME280;68982;52.160;6.736;2023-04-25T08:17:23;101110.22;;;7.60;61.96
79534;BME280;68982;52.160;6.736;2023-04-25T08:19:48;101099.78;;;7.57;61.31
79534;BME280;68982;52.160;6.736;2023-04-25T08:22:14;101105.72;;;7.77;60.63
79534;BME280;68982;52.160;6.736;2023-04-25T08:24:39;101101.38;;;7.84;58.71
79534;BME280;68982;52.160;6.736;2023-04-25T08:27:05;101111.78;;;7.79;57.63
79534;BME280;68982;52.160;6.736;2023-04-25T08:29:31;101109.81;;;7.89;58.28
79534;BME280;68982;52.160;6.736;2023-04-25T08:31:56;101111.97;;;8.02;58.49
79534;BME280;68982;52.160;6.736;2023-04-25T08:34:22;101120.41;;;8.24;58.68
79534;BME280;68982;52.160;6.736;2023-04-25T08:36:47;101119.88;;;7.87;55.45
79534;BME280;68982;52.160;6.736;2023-04-25T08:39:13;101126.38;;;7.77;53.10
79534;BME280;68982;52.160;6.736;2023-04-25T08:41:38;101125.03;;;7.89;55.15
79534;BME280;68982;52.160;6.736;2023-04-25T08:44:06;101133.00;;;8.15;54.64
79534;BME280;68982;52.160;6.736;2023-04-25T08:46:35;101138.53;;;8.05;53.62
79534;BME280;68982;52.160;6.736;2023-04-25T08:49:01;101141.75;;;8.17;51.88
79534;BME280;68982;52.160;6.736;2023-04-25T08:51:31;101153.28;;;8.01;52.14
79534;BME280;68982;52.160;6.736;2023-04-25T08:54:08;101148.78;;;8.10;50.79
79534;BME280;68982;52.160;6.736;2023-04-25T08:56:34;101150.88;;;8.49;52.83
79534;BME280;68982;52.160;6.736;2023-04-25T08:59:01;101143.09;;;8.38;52.41
79534;BME280;68982;52.160;6.736;2023-04-25T09:01:27;101159.44;;;8.69;52.92
79534;BME280;68982;52.160;6.736;2023-04-25T09:03:53;101150.38;;;8.54;55.79
79534;BME280;68982;52.160;6.736;2023-04-25T09:06:19;101154.56;;;8.48;56.20
79534;BME280;68982;52.160;6.736;2023-04-25T09:08:45;101153.22;;;8.44;56.39
79534;BME280;68982;52.160;6.736;2023-04-25T09:11:12;101154.06;;;8.44;56.95
79534;BME280;68982;52.160;6.736;2023-04-25T09:13:37;101163.44;;;8.32;58.64
79534;BME280;68982;52.160;6.736;2023-04-25T09:16:03;101175.31;;;8.21;56.90
79534;BME280;68982;52.160;6.736;2023-04-25T09:18:33;101173.81;;;8.27;58.51
79534;BME280;68982;52.160;6.736;2023-04-25T09:21:09;101183.97;;;8.49;57.05
79534;BME280;68982;52.160;6.736;2023-04-25T09:23:47;101180.72;;;8.38;57.79
79534;BME280;68982;52.160;6.736;2023-04-25T09:26:18;101188.00;;;8.45;55.12
79534;BME280;68982;52.160;6.736;2023-04-25T09:28:44;101193.22;;;8.63;57.59
79534;BME280;68982;52.160;6.736;2023-04-25T09:31:10;101179.47;;;8.83;55.91
79534;BME280;68982;52.160;6.736;2023-04-25T09:33:37;101197.22;;;8.51;55.13
79534;BME280;68982;52.160;6.736;2023-04-25T09:36:04;101193.31;;;8.37;55.57
79534;BME280;68982;52.160;6.736;2023-04-25T09:38:31;101190.03;;;8.60;55.08
79534;BME280;68982;52.160;6.736;2023-04-25T09:40:58;101191.22;;;8.65;54.41
79534;BME280;68982;52.160;6.736;2023-04-25T09:43:24;101193.25;;;8.71;54.87
79534;BME280;68982;52.160;6.736;2023-04-25T09:45:51;101194.19;;;9.20;56.30
79534;BME280;68982;52.160;6.736;2023-04-25T09:48:21;101200.03;;;9.40;53.98
79534;BME280;68982;52.160;6.736;2023-04-25T09:51:04;101199.41;;;9.85;51.95
79534;BME280;68982;52.160;6.736;2023-04-25T09:53:30;101196.06;;;10.14;52.92
79534;BME280;68982;52.160;6.736;2023-04-25T09:55:59;101203.00;;;10.40;50.01
79534;BME280;68982;52.160;6.736;2023-04-25T09:58:25;101199.47;;;10.40;50.38
79534;BME280;68982;52.160;6.736;2023-04-25T10:01:00;101193.53;;;10.13;50.89
79534;BME280;68982;52.160;6.736;2023-04-25T10:03:27;101201.47;;;10.69;51.69
79534;BME280;68982;52.160;6.736;2023-04-25T10:05:55;101207.28;;;10.26;52.19
79534;BME280;68982;52.160;6.736;2023-04-25T10:08:22;101210.38;;;10.46;54.68
79534;BME280;68982;52.160;6.736;2023-04-25T10:10:48;101208.66;;;10.53;52.74
79534;BME280;68982;52.160;6.736;2023-04-25T10:13:16;101216.63;;;9.76;55.66
79534;BME280;68982;52.160;6.736;2023-04-25T10:15:41;101225.69;;;9.83;58.74
79534;BME280;68982;52.160;6.736;2023-04-25T10:18:07;101235.03;;;9.40;58.19
79534;BME280;68982;52.160;6.736;2023-04-25T10:20:33;101243.16;;;8.90;59.40
79534;BME280;68982;52.160;6.736;2023-04-25T10:23:06;101248.25;;;8.35;61.12
79534;BME280;68982;52.160;6.736;2023-04-25T10:25:33;101263.81;;;7.80;60.83
79534;BME280;68982;52.160;6.736;2023-04-25T10:28:00;101266.66;;;7.79;67.14
79534;BME280;68982;52.160;6.736;2023-04-25T10:30:28;101274.34;;;7.47;65.77
79534;BME280;68982;52.160;6.736;2023-04-25T10:32:55;101265.28;;;7.04;66.94
79534;BME280;68982;52.160;6.736;2023-04-25T10:35:26;101257.28;;;7.31;66.91
79534;BME280;68982;52.160;6.736;2023-04-25T10:40:25;101271.75;;;7.64;68.00
79534;BME280;68982;52.160;6.736;2023-04-25T10:42:54;101269.47;;;7.77;67.37
79534;BME280;68982;52.160;6.736;2023-04-25T10:45:21;101277.72;;;7.50;66.28
79534;BME280;68982;52.160;6.736;2023-04-25T10:47:46;101272.53;;;7.30;67.72
79534;BME280;68982;52.160;6.736;2023-04-25T10:50:14;101277.38;;;7.26;70.71
79534;BME280;68982;52.160;6.736;2023-04-25T10:52:40;101279.81;;;7.20;71.69
79534;BME280;68982;52.160;6.736;2023-04-25T10:55:08;101267.22;;;7.12;72.06
79534;BME280;68982;52.160;6.736;2023-04-25T10:57:40;101269.66;;;7.23;72.95
79534;BME280;68982;52.160;6.736;2023-04-25T11:00:16;101268.25;;;7.63;70.84
79534;BME280;68982;52.160;6.736;2023-04-25T11:02:47;101270.28;;;8.04;69.80
79534;BME280;68982;52.160;6.736;2023-04-25T11:05:23;101266.13;;;8.52;65.17
79534;BME280;68982;52.160;6.736;2023-04-25T11:07:54;101259.41;;;9.38;62.16
79534;BME280;68982;52.160;6.736;2023-04-25T11:10:28;101248.88;;;9.84;58.61
79534;BME280;68982;52.160;6.736;2023-04-25T11:12:54;101254.69;;;10.75;57.17
79534;BME280;68982;52.160;6.736;2023-04-25T11:15:20;101248.38;;;10.36;58.71
79534;BME280;68982;52.160;6.736;2023-04-25T11:17:46;101245.53;;;10.22;56.42
79534;BME280;68982;52.160;6.736;2023-04-25T11:20:12;101257.78;;;10.41;57.40
79534;BME280;68982;52.160;6.736;2023-04-25T11:22:39;101253.38;;;10.00;58.70
79534;BME280;68982;52.160;6.736;2023-04-25T11:25:09;101258.44;;;10.43;55.32
79534;BME280;68982;52.160;6.736;2023-04-25T11:27:55;101255.81;;;10.57;52.21
79534;BME280;68982;52.160;6.736;2023-04-25T11:30:21;101242.38;;;11.18;48.50
79534;BME280;68982;52.160;6.736;2023-04-25T11:32:47;101247.56;;;11.73;44.14
79534;BME280;68982;52.160;6.736;2023-04-25T11:35:13;101253.84;;;11.88;43.88
79534;BME280;68982;52.160;6.736;2023-04-25T11:37:40;101255.19;;;12.14;44.55
79534;BME280;68982;52.160;6.736;2023-04-25T11:40:06;101245.44;;;12.13;41.63
79534;BME280;68982;52.160;6.736;2023-04-25T11:42:32;101245.50;;;12.56;42.70
79534;BME280;68982;52.160;6.736;2023-04-25T11:44:58;101255.34;;;12.27;45.48
79534;BME280;68982;52.160;6.736;2023-04-25T11:47:31;101246.16;;;12.21;44.45
79534;BME280;68982;52.160;6.736;2023-04-25T11:50:01;101258.88;;;12.42;42.41
79534;BME280;68982;52.160;6.736;2023-04-25T11:52:42;101265.28;;;12.56;43.74
79534;BME280;68982;52.160;6.736;2023-04-25T11:57:38;101259.44;;;12.38;43.97
79534;BME280;68982;52.160;6.736;2023-04-25T12:02:41;101242.34;;;13.17;42.36
79534;BME280;68982;52.160;6.736;2023-04-25T12:05:08;101242.78;;;12.56;40.46
79534;BME280;68982;52.160;6.736;2023-04-25T12:07:34;101255.59;;;12.83;39.47
79534;BME280;68982;52.160;6.736;2023-04-25T12:10:13;101246.63;;;12.83;39.36
79534;BME280;68982;52.160;6.736;2023-04-25T12:12:42;101257.63;;;12.81;39.74
79534;BME280;68982;52.160;6.736;2023-04-25T12:17:42;101264.19;;;11.09;49.00
79534;BME280;68982;52.160;6.736;2023-04-25T12:20:09;101267.47;;;10.81;49.87
79534;BME280;68982;52.160;6.736;2023-04-25T12:22:35;101279.13;;;11.19;51.10
79534;BME280;68982;52.160;6.736;2023-04-25T12:25:02;101282.38;;;11.15;52.21
79534;BME280;68982;52.160;6.736;2023-04-25T12:27:30;101274.03;;;10.55;53.94
79534;BME280;68982;52.160;6.736;2023-04-25T12:29:56;101278.75;;;10.53;54.29
79534;BME280;68982;52.160;6.736;2023-04-25T12:32:22;101280.03;;;10.26;54.77
79534;BME280;68982;52.160;6.736;2023-04-25T12:34:47;101293.06;;;10.23;57.96
79534;BME280;68982;52.160;6.736;2023-04-25T12:37:13;101314.47;;;9.27;58.87
79534;BME280;68982;52.160;6.736;2023-04-25T12:39:38;101322.94;;;8.65;61.90
79534;BME280;68982;52.160;6.736;2023-04-25T12:42:04;101317.72;;;8.64;63.76
79534;BME280;68982;52.160;6.736;2023-04-25T12:44:29;101320.22;;;8.57;64.80
79534;BME280;68982;52.160;6.736;2023-04-25T12:46:55;101324.91;;;8.55;62.98
79534;BME280;68982;52.160;6.736;2023-04-25T12:49:20;101324.63;;;8.58;62.80
79534;BME280;68982;52.160;6.736;2023-04-25T12:51:46;101328.03;;;8.85;59.45
79534;BME280;68982;52.160;6.736;2023-04-25T12:54:12;101321.91;;;8.58;56.99
79534;BME280;68982;52.160;6.736;2023-04-25T12:56:38;101315.88;;;8.64;59.41
79534;BME280;68982;52.160;6.736;2023-04-25T12:59:03;101319.41;;;8.73;57.59
79534;BME280;68982;52.160;6.736;2023-04-25T13:01:29;101304.84;;;9.00;58.16
79534;BME280;68982;52.160;6.736;2023-04-25T13:03:54;101323.19;;;9.05;55.05
79534;BME280;68982;52.160;6.736;2023-04-25T13:06:21;101313.72;;;9.83;56.06